createdAt,value
2023-11-20T00:01:50.143Z,77.62
2023-11-20T00:04:54.021Z,78.30
2023-11-20T00:07:59.201Z,78.40
2023-11-20T00:11:02.525Z,78.68
2023-11-20T00:14:13.032Z,78.43
2023-11-20T00:17:18.445Z,79.54
2023-11-20T00:20:21.439Z,78.46
2023-11-20T00:23:24.381Z,78.60
2023-11-20T00:26:27.543Z,79.44
2023-11-20T00:29:34.506Z,79.97
2023-11-20T00:32:37.662Z,80.35
2023-11-20T00:35:42.556Z,78.42
2023-11-20T00:38:46.423Z,77.60
2023-11-20T00:41:50.312Z,78.35
2023-11-20T00:44:53.241Z,79.39
2023-11-20T00:47:56.411Z,78.79
2023-11-20T00:50:59.772Z,77.26
2023-11-20T00:54:02.993Z,78.46
2023-11-20T00:57:06.507Z,78.96
2023-11-20T01:00:10.304Z,77.87
2023-11-20T01:03:13.633Z,77.67
2023-11-20T01:06:19.584Z,77.28
2023-11-20T01:09:22.626Z,77.84
2023-11-20T01:12:28.719Z,79.07
2023-11-20T01:15:35.907Z,78.57
2023-11-20T01:18:38.980Z,77.79
2023-11-20T01:21:43.575Z,78.25
2023-11-20T01:24:46.768Z,78.65
2023-11-20T01:27:49.811Z,80.16
2023-11-20T01:30:53.127Z,80.76
2023-11-20T01:33:56.287Z,80.43
2023-11-20T01:36:59.978Z,79.59
2023-11-20T01:40:05.775Z,79.25
2023-11-20T01:43:09.082Z,79.75
2023-11-20T01:46:14.827Z,80.21
2023-11-20T01:49:18.173Z,80.41
2023-11-20T01:52:22.415Z,80.37
2023-11-20T01:55:25.657Z,80.11
2023-11-20T01:58:29.746Z,79.77
2023-11-20T02:01:34.332Z,79.89
2023-11-20T02:04:40.214Z,80.03
2023-11-20T02:07:43.704Z,79.84
2023-11-20T02:10:52.975Z,79.66
2023-11-20T02:13:57.275Z,79.67
2023-11-20T02:17:00.568Z,79.02
2023-11-20T02:20:04.749Z,77.68
2023-11-20T02:23:08.299Z,78.11
2023-11-20T02:26:14.230Z,78.70
2023-11-20T02:29:32.170Z,78.89
2023-11-20T02:32:35.216Z,78.85
2023-11-20T02:35:38.228Z,78.78
2023-11-20T02:38:43.383Z,78.97
2023-11-20T02:41:46.437Z,78.33
2023-11-20T02:44:51.311Z,78.59
2023-11-20T02:47:54.256Z,78.84
2023-11-20T02:50:57.564Z,79.01
2023-11-20T02:54:00.967Z,78.91
2023-11-20T02:57:07.230Z,79.08
2023-11-20T03:00:13.591Z,79.21
2023-11-20T03:03:18.495Z,79.17
2023-11-20T03:06:21.768Z,79.29
2023-11-20T03:09:24.762Z,79.48
2023-11-20T03:12:27.897Z,79.71
2023-11-20T03:15:31.046Z,80.00
2023-11-20T03:18:34.281Z,80.26
2023-11-20T03:21:41.548Z,80.67
2023-11-20T03:24:44.499Z,80.42
2023-11-20T03:27:48.112Z,80.63
2023-11-20T03:30:51.099Z,80.72
2023-11-20T03:33:58.920Z,80.24
2023-11-20T03:37:02.665Z,80.31
2023-11-20T03:40:06.982Z,80.41
2023-11-20T03:43:10.148Z,80.66
2023-11-20T03:46:13.286Z,80.44
2023-11-20T03:49:16.194Z,79.41
2023-11-20T03:52:19.203Z,79.85
2023-11-20T03:55:22.537Z,80.04
2023-11-20T03:58:25.679Z,80.41
2023-11-20T04:01:28.705Z,80.62
2023-11-20T04:04:31.827Z,80.73
2023-11-20T04:07:35.147Z,80.85
2023-11-20T04:10:39.685Z,80.87
2023-11-20T04:13:42.773Z,80.34
2023-11-20T04:16:47.229Z,80.34
2023-11-20T04:19:50.681Z,80.55
2023-11-20T04:22:55.868Z,80.34
2023-11-20T04:25:59.350Z,80.35
2023-11-20T04:29:03.149Z,80.33
2023-11-20T04:32:06.403Z,80.58
2023-11-20T04:35:09.312Z,81.04
2023-11-20T04:38:12.242Z,80.99
2023-11-20T04:41:15.198Z,81.24
2023-11-20T04:44:18.340Z,81.40
2023-11-20T04:47:21.338Z,81.50
2023-11-20T04:50:24.352Z,81.35
2023-11-20T04:53:27.644Z,80.86
2023-11-20T04:56:30.782Z,80.54
2023-11-20T04:59:33.723Z,81.09
2023-11-20T05:02:36.793Z,81.40
2023-11-20T05:05:40.637Z,81.19
2023-11-20T05:08:43.863Z,81.00
2023-11-20T05:11:48.145Z,80.47
2023-11-20T05:14:50.994Z,80.02
2023-11-20T05:17:53.888Z,80.29
2023-11-20T05:20:56.785Z,80.24
2023-11-20T05:24:02.494Z,80.64
2023-11-20T05:27:05.576Z,81.04
2023-11-20T05:30:09.490Z,81.18
2023-11-20T05:33:13.109Z,81.10
2023-11-20T05:36:16.449Z,81.02
2023-11-20T05:39:20.276Z,80.97
2023-11-20T05:42:24.578Z,80.91
2023-11-20T05:45:28.458Z,80.96
2023-11-20T05:48:31.555Z,81.13
2023-11-20T05:51:34.413Z,81.20
2023-11-20T05:54:38.239Z,81.15
2023-11-20T05:57:41.417Z,81.45
2023-11-20T06:00:44.525Z,81.53
2023-11-20T06:03:48.191Z,81.44
2023-11-20T06:06:51.105Z,81.39
2023-11-20T06:09:54.441Z,81.39
2023-11-20T06:12:57.093Z,81.19
2023-11-20T06:16:00.294Z,81.12
2023-11-20T06:19:02.999Z,81.03
2023-11-20T06:22:06.170Z,81.12
2023-11-20T06:25:09.270Z,80.56
2023-11-20T06:28:12.640Z,80.67
2023-11-20T06:31:15.295Z,80.54
2023-11-20T06:34:18.696Z,80.93
2023-11-20T06:37:22.981Z,80.59
2023-11-20T06:40:26.409Z,80.22
2023-11-20T06:43:29.473Z,79.94
2023-11-20T06:46:33.019Z,79.96
2023-11-20T06:49:42.346Z,80.22
2023-11-20T06:52:45.588Z,80.37
2023-11-20T06:55:48.378Z,80.00
2023-11-20T06:58:52.617Z,79.87
2023-11-20T07:01:56.359Z,80.25
2023-11-20T07:05:00.979Z,79.94
2023-11-20T07:08:08.217Z,80.42
2023-11-20T07:11:12.113Z,80.35
2023-11-20T07:14:15.491Z,80.53
2023-11-20T07:17:18.903Z,80.32
2023-11-20T07:20:21.843Z,80.08
2023-11-20T07:23:25.214Z,79.99
2023-11-20T07:26:27.982Z,78.94
2023-11-20T07:29:35.574Z,77.76
2023-11-20T07:32:38.433Z,77.39
2023-11-20T07:35:41.742Z,77.04
2023-11-20T07:38:49.632Z,76.22
2023-11-20T07:41:52.999Z,74.93
2023-11-20T07:44:55.882Z,71.81
2023-11-20T07:47:59.171Z,71.84
2023-11-20T07:51:03.896Z,72.12
2023-11-20T07:54:12.853Z,72.29
2023-11-20T07:57:16.597Z,72.43
2023-11-20T08:00:20.377Z,71.93
2023-11-20T08:03:23.315Z,71.41
2023-11-20T08:06:26.514Z,70.60
2023-11-20T08:09:30.081Z,70.11
2023-11-20T08:12:32.981Z,67.72
2023-11-20T08:15:35.963Z,65.10
2023-11-20T08:18:39.237Z,65.52
2023-11-20T08:21:42.735Z,67.19
2023-11-20T08:24:45.805Z,68.67
2023-11-20T08:28:18.027Z,66.24
2023-11-20T08:31:21.236Z,59.89
2023-11-20T08:34:24.485Z,59.94
2023-11-20T08:37:27.384Z,61.53
2023-11-20T08:40:31.255Z,63.44
2023-11-20T08:43:34.357Z,65.61
2023-11-20T08:46:38.770Z,67.27
2023-11-20T08:49:43.740Z,68.55
2023-11-20T08:52:47.641Z,69.02
2023-11-20T08:55:50.676Z,69.94
2023-11-20T08:58:53.725Z,70.70
2023-11-20T09:01:58.258Z,71.06
2023-11-20T09:05:02.008Z,71.59
2023-11-20T09:08:05.135Z,72.25
2023-11-20T09:11:09.351Z,72.13
2023-11-20T09:14:13.672Z,72.20
2023-11-20T09:17:16.740Z,72.32
2023-11-20T09:20:23.504Z,72.67
2023-11-20T09:23:27.973Z,72.88
2023-11-20T09:26:30.973Z,72.90
2023-11-20T09:29:33.926Z,72.23
2023-11-20T09:32:36.988Z,71.75
2023-11-20T09:35:40.070Z,72.03
2023-11-20T09:38:43.415Z,72.69
2023-11-20T09:41:46.224Z,73.51
2023-11-20T09:44:50.835Z,74.10
2023-11-20T09:47:58.539Z,74.30
2023-11-20T09:51:10.927Z,74.30
2023-11-20T09:54:21.372Z,74.01
2023-11-20T09:57:28.448Z,74.23
2023-11-20T10:00:31.441Z,74.14
2023-11-20T10:03:40.119Z,74.09
2023-11-20T10:06:45.875Z,74.04
2023-11-20T10:09:52.948Z,73.83
2023-11-20T10:12:59.158Z,73.05
2023-11-20T10:16:03.234Z,72.45
2023-11-20T10:19:09.298Z,71.17
2023-11-20T10:22:17.331Z,68.86
2023-11-20T10:25:20.552Z,69.37
2023-11-20T10:28:26.568Z,68.53
2023-11-20T10:31:29.591Z,67.41
2023-11-20T10:34:36.147Z,67.20
2023-11-20T10:37:52.940Z,66.03
2023-11-20T10:40:59.509Z,65.85
2023-11-20T10:44:03.048Z,64.67
2023-11-20T10:47:07.691Z,64.28
2023-11-20T10:50:26.913Z,63.30
2023-11-20T10:53:43.945Z,62.75
2023-11-20T10:56:47.888Z,64.32
2023-11-20T10:59:54.275Z,62.30
2023-11-20T11:03:07.641Z,60.67
2023-11-20T11:06:17.623Z,60.11
2023-11-20T11:09:21.639Z,60.89
2023-11-20T11:12:30.573Z,60.63
2023-11-20T11:15:33.351Z,60.17
2023-11-20T11:18:39.027Z,60.47
2023-11-20T11:21:53.694Z,61.15
2023-11-20T11:25:03.614Z,60.32
2023-11-20T11:28:10.939Z,59.71
2023-11-20T11:31:19.672Z,59.02
2023-11-20T11:34:32.944Z,59.01
2023-11-20T11:37:54.869Z,58.65
2023-11-20T11:41:21.121Z,59.02
2023-11-20T11:45:02.439Z,57.65
2023-11-20T11:48:08.107Z,56.83
2023-11-20T11:51:22.402Z,55.05
2023-11-20T11:54:28.073Z,55.34
2023-11-20T11:57:35.105Z,56.24
2023-11-20T12:00:38.338Z,54.78
2023-11-20T12:03:41.976Z,54.22
2023-11-20T12:06:45.014Z,54.29
2023-11-20T12:10:01.787Z,54.76
2023-11-20T12:13:11.237Z,53.58
2023-11-20T12:16:20.998Z,52.02
2023-11-20T12:19:24.879Z,51.24
2023-11-20T12:22:28.400Z,51.52
2023-11-20T12:25:31.383Z,51.61
2023-11-20T12:28:35.453Z,51.48
2023-11-20T12:31:38.911Z,52.21
2023-11-20T12:34:42.308Z,56.79
2023-11-20T12:37:46.355Z,57.76
2023-11-20T12:40:54.198Z,59.36
2023-11-20T12:43:57.732Z,60.06
2023-11-20T12:47:05.851Z,60.58
2023-11-20T12:50:14.894Z,60.76
2023-11-20T12:53:22.717Z,61.50
2023-11-20T12:56:26.855Z,61.57
2023-11-20T12:59:31.197Z,61.88
2023-11-20T13:02:34.347Z,62.84
2023-11-20T13:05:37.828Z,63.21
2023-11-20T13:08:41.147Z,64.36
2023-11-20T13:11:44.510Z,65.22
2023-11-20T13:15:00.759Z,65.10
2023-11-20T13:18:06.949Z,65.15
2023-11-20T13:21:20.449Z,62.79
2023-11-20T13:24:23.694Z,60.78
2023-11-20T13:27:29.545Z,59.50
2023-11-20T13:30:32.909Z,59.63
2023-11-20T13:33:37.230Z,59.55
2023-11-20T13:36:41.249Z,58.25
2023-11-20T13:39:43.959Z,60.90
2023-11-20T13:42:50.224Z,62.66
2023-11-20T13:45:53.334Z,63.73
2023-11-20T13:48:56.818Z,64.73
2023-11-20T13:51:59.516Z,65.64
2023-11-20T13:55:02.892Z,63.17
2023-11-20T13:58:06.774Z,60.59
2023-11-20T14:01:13.418Z,59.66
2023-11-20T14:04:20.461Z,59.32
2023-11-20T14:07:23.595Z,58.80
2023-11-20T14:10:26.540Z,58.96
2023-11-20T14:13:30.105Z,59.14
2023-11-20T14:16:33.875Z,58.89
2023-11-20T14:19:37.051Z,59.77
2023-11-20T14:22:42.892Z,60.09
2023-11-20T14:26:00.617Z,61.18
2023-11-20T14:29:09.190Z,61.36
2023-11-20T14:32:14.930Z,62.16
2023-11-20T14:35:18.270Z,62.95
2023-11-20T14:38:21.290Z,60.42
2023-11-20T14:41:24.292Z,61.55
2023-11-20T14:44:30.031Z,59.19
2023-11-20T14:47:32.959Z,60.40
2023-11-20T14:50:35.966Z,61.97
2023-11-20T14:53:40.161Z,62.97
2023-11-20T14:56:43.053Z,61.97
2023-11-20T14:59:46.042Z,60.66
2023-11-20T15:02:53.547Z,61.29
2023-11-20T15:05:56.847Z,60.52
2023-11-20T15:08:59.726Z,59.76
2023-11-20T15:12:02.741Z,61.16
2023-11-20T15:15:07.464Z,62.53
2023-11-20T15:18:10.431Z,63.35
2023-11-20T15:21:13.396Z,61.14
2023-11-20T15:24:16.482Z,62.61
2023-11-20T15:27:19.469Z,62.50
2023-11-20T15:30:22.402Z,62.02
2023-11-20T15:33:25.273Z,61.35
2023-11-20T15:36:28.225Z,61.11
2023-11-20T15:39:31.270Z,59.92
2023-11-20T15:42:34.243Z,60.01
2023-11-20T15:45:38.258Z,59.88
2023-11-20T15:48:47.361Z,59.77
2023-11-20T15:51:50.528Z,60.30
2023-11-20T15:54:53.556Z,60.34
2023-11-20T15:57:56.744Z,59.94
2023-11-20T16:00:59.644Z,59.87
2023-11-20T16:04:04.664Z,60.14
2023-11-20T16:07:07.552Z,59.85
2023-11-20T16:10:16.903Z,60.09
2023-11-20T16:13:22.801Z,60.03
2023-11-20T16:16:26.145Z,60.75
2023-11-20T16:19:29.330Z,59.67
2023-11-20T16:22:32.576Z,60.35
2023-11-20T16:25:43.099Z,59.82
2023-11-20T16:28:51.249Z,59.64
2023-11-20T16:31:57.793Z,59.39
2023-11-20T16:35:01.176Z,59.17
2023-11-20T16:38:04.942Z,59.64
2023-11-20T16:41:08.773Z,59.41
2023-11-20T16:44:11.483Z,59.45
2023-11-20T16:47:16.441Z,59.59
2023-11-20T16:50:19.297Z,60.00
2023-11-20T16:53:22.476Z,60.29
2023-11-20T16:56:32.770Z,60.50
2023-11-20T16:59:36.196Z,61.02
2023-11-20T17:02:39.331Z,62.03
2023-11-20T17:05:48.682Z,62.52
2023-11-20T17:08:55.545Z,62.97
2023-11-20T17:11:59.936Z,63.58
2023-11-20T17:15:04.590Z,63.90
2023-11-20T17:18:08.666Z,64.62
2023-11-20T17:21:11.466Z,65.26
2023-11-20T17:24:14.596Z,64.83
2023-11-20T17:27:17.089Z,65.25
2023-11-20T17:30:21.214Z,66.13
2023-11-20T17:33:24.626Z,66.18
2023-11-20T17:36:28.446Z,66.41
2023-11-20T17:39:31.234Z,65.97
2023-11-20T17:42:35.493Z,66.51
2023-11-20T17:45:41.725Z,66.81
2023-11-20T17:48:46.436Z,66.84
2023-11-20T17:51:49.111Z,67.34
2023-11-20T17:54:55.317Z,65.77
2023-11-20T17:57:57.943Z,65.15
2023-11-20T18:01:02.118Z,66.26
2023-11-20T18:04:06.050Z,65.56
2023-11-20T18:07:12.768Z,64.15
2023-11-20T18:10:17.762Z,63.86
2023-11-20T18:13:20.767Z,64.14
2023-11-20T18:16:23.917Z,64.80
2023-11-20T18:19:27.034Z,63.76
2023-11-20T18:22:30.668Z,63.65
2023-11-20T18:25:33.708Z,64.26
2023-11-20T18:28:36.972Z,65.22
2023-11-20T18:31:41.710Z,66.03
2023-11-20T18:34:44.810Z,66.76
2023-11-20T18:37:47.870Z,67.25
2023-11-20T18:40:50.754Z,67.50
2023-11-20T18:43:53.964Z,67.59
2023-11-20T18:47:00.289Z,68.08
2023-11-20T18:50:05.286Z,68.50
2023-11-20T18:53:19.237Z,68.84
2023-11-20T18:56:29.786Z,69.16
2023-11-20T18:59:38.034Z,69.49
2023-11-20T19:02:43.315Z,69.75
2023-11-20T19:05:49.321Z,70.19
2023-11-20T19:08:53.147Z,70.50
2023-11-20T19:11:56.404Z,70.59
2023-11-20T19:15:00.071Z,70.66
2023-11-20T19:18:03.512Z,70.97
2023-11-20T19:21:07.099Z,71.23
2023-11-20T19:24:14.231Z,71.37
2023-11-20T19:27:17.748Z,71.22
2023-11-20T19:30:27.646Z,70.47
2023-11-20T19:33:32.568Z,70.92
2023-11-20T19:36:35.820Z,71.45
2023-11-20T19:39:40.049Z,71.47
2023-11-20T19:42:43.458Z,71.51
2023-11-20T19:45:47.450Z,71.68
2023-11-20T19:48:53.326Z,71.51
2023-11-20T19:51:56.659Z,71.62
2023-11-20T19:55:00.101Z,71.80
2023-11-20T19:58:05.659Z,71.66
2023-11-20T20:01:08.808Z,71.75
2023-11-20T20:04:16.137Z,71.67
2023-11-20T20:07:22.009Z,71.65
2023-11-20T20:10:26.387Z,71.96
2023-11-20T20:13:29.176Z,71.71
2023-11-20T20:16:32.527Z,71.49
2023-11-20T20:19:38.685Z,71.38
2023-11-20T20:22:42.116Z,71.51
2023-11-20T20:25:44.777Z,71.81
2023-11-20T20:28:50.616Z,71.50
2023-11-20T20:31:53.559Z,71.79
2023-11-20T20:34:56.712Z,72.12
2023-11-20T20:38:00.974Z,72.21
2023-11-20T20:41:04.526Z,72.32
2023-11-20T20:44:07.455Z,72.48
2023-11-20T20:47:10.921Z,72.53
2023-11-20T20:50:13.782Z,72.32
2023-11-20T20:53:17.217Z,72.51
2023-11-20T20:56:19.948Z,72.13
2023-11-20T20:59:23.408Z,72.38
2023-11-20T21:02:26.898Z,72.64
2023-11-20T21:05:30.961Z,72.75
2023-11-20T21:08:33.574Z,72.66
2023-11-20T21:11:37.647Z,72.64
2023-11-20T21:14:40.900Z,72.54
2023-11-20T21:17:46.271Z,72.59
2023-11-20T21:20:49.089Z,72.57
2023-11-20T21:23:56.860Z,72.55
2023-11-20T21:27:11.652Z,72.23
2023-11-20T21:30:18.129Z,72.09
2023-11-20T21:33:21.079Z,71.65
2023-11-20T21:36:28.414Z,71.88
2023-11-20T21:39:31.492Z,71.90
2023-11-20T21:42:36.488Z,71.62
2023-11-20T21:45:43.219Z,71.53
2023-11-20T21:48:51.223Z,71.66
2023-11-20T21:51:54.164Z,71.42
2023-11-20T21:54:58.808Z,71.26
2023-11-20T21:58:01.905Z,71.40
2023-11-20T22:01:07.971Z,70.94
2023-11-20T22:04:11.196Z,71.08
2023-11-20T22:07:16.556Z,71.05
2023-11-20T22:10:22.085Z,71.03
2023-11-20T22:13:27.363Z,70.02
2023-11-20T22:16:30.229Z,69.70
2023-11-20T22:19:33.841Z,70.17
2023-11-20T22:22:37.103Z,70.34
2023-11-20T22:25:40.087Z,70.78
2023-11-20T22:28:43.179Z,70.49
2023-11-20T22:31:46.384Z,70.96
2023-11-20T22:35:06.375Z,69.02
2023-11-20T22:38:14.375Z,68.18
2023-11-20T22:41:17.275Z,69.37
2023-11-20T22:44:20.531Z,69.86
2023-11-20T22:47:23.300Z,71.01
2023-11-20T22:50:26.263Z,71.26
2023-11-20T22:53:34.162Z,71.23
2023-11-20T22:56:40.563Z,71.51
2023-11-20T22:59:43.998Z,71.14
2023-11-20T23:02:47.079Z,70.92
2023-11-20T23:05:50.220Z,71.66
2023-11-20T23:08:57.010Z,71.74
2023-11-20T23:12:01.885Z,71.92
2023-11-20T23:15:06.196Z,71.83
2023-11-20T23:18:09.697Z,71.87
2023-11-20T23:21:13.000Z,72.09
2023-11-20T23:24:16.761Z,71.73
2023-11-20T23:27:19.797Z,71.82
2023-11-20T23:30:23.057Z,72.21
2023-11-20T23:33:26.273Z,72.30
2023-11-20T23:36:29.581Z,71.97
2023-11-20T23:39:32.460Z,72.11
2023-11-20T23:42:42.271Z,71.81
2023-11-20T23:45:50.913Z,72.00
2023-11-20T23:48:53.900Z,72.24
2023-11-20T23:51:56.796Z,72.21
2023-11-20T23:54:59.754Z,72.25
2023-11-20T23:58:02.805Z,72.56
